This is the latest recevied weather packets stored in our database for station/object LRCK. If no packets are shown the sender has not sent any weather packets the latest 10 day(s).
| Time | Temp. | Humidity | Pressure | Rain* | Wind** | Luminosity | Snow |
|---|---|---|---|---|---|---|---|
| 1777913297 | 12.78° C | 59% | 1015 hPa | - | - | - | - |
| 1777912412 | 12.78° C | 59% | 1015 hPa | - | - | - | - |
| 1777911506 | 13.89° C | 51% | 1015 hPa | - | - | - | - |
| 1777910598 | 13.89° C | 51% | 1015 hPa | - | - | - | - |
| 1777909697 | 15° C | 48% | 1015 hPa | - | - | - | - |
| 1777908797 | 15° C | 48% | 1015 hPa | - | - | - | - |
| 1777907898 | 17.22° C | 37% | 1014 hPa | - | - | - | - |
| 1777906997 | 17.22° C | 37% | 1014 hPa | - | - | - | - |
| 1777906097 | 17.78° C | 32% | 1014 hPa | - | - | - | - |
| 1777905198 | 17.78° C | 32% | 1014 hPa | - | - | - | - |
| 1777904365 | 17.78° C | 34% | 1014 hPa | - | - | - | - |
| 1777903398 | 17.78° C | 34% | 1014 hPa | - | - | - | - |
| 1777902497 | 17.78° C | 34% | 1014 hPa | - | - | - | - |
| 1777901598 | 17.78° C | 34% | 1014 hPa | - | - | - | - |
| 1777900697 | 17.22° C | 37% | 1014 hPa | - | - | - | - |
| 1777899797 | 17.22° C | 37% | 1014 hPa | - | - | - | - |
| 1777898898 | 17.22° C | 34% | 1015 hPa | - | - | - | - |
| 1777897998 | 17.22° C | 34% | 1015 hPa | - | - | - | - |
| 1777897097 | 17.22° C | 34% | 1015 hPa | - | - | - | - |
| 1777896196 | 17.22° C | 34% | 1015 hPa | - | - | - | - |
| 1777895297 | 17.22° C | 37% | 1015 hPa | - | - | - | - |
| 1777894397 | 17.22° C | 37% | 1015 hPa | - | - | - | - |
| 1777893531 | 17.78° C | 37% | 1015 hPa | - | - | - | - |
| 1777892597 | 17.78° C | 37% | 1015 hPa | - | - | - | - |
| 1777891697 | 17.22° C | 34% | 1015 hPa | - | - | - | - |
* Rain since midnight (hover to see other rain measurements)
** Current wind speed in m/s (hover to see current wind gust speed)